sensor_id;sensor_type;location;lat;lon;timestamp;pressure;altitude;pressure_sealevel;temperature;humidity
10946;BME280;5525;42.648;23.368;2023-03-20T00:00:57;94993.72;;;5.42;100.00
10946;BME280;5525;42.648;23.368;2023-03-20T00:03:25;94986.25;;;5.39;100.00
10946;BME280;5525;42.648;23.368;2023-03-20T00:05:51;94986.47;;;5.42;100.00
10946;BME280;5525;42.648;23.368;2023-03-20T00:08:18;94971.09;;;5.53;100.00
10946;BME280;5525;42.648;23.368;2023-03-20T00:10:45;94968.66;;;5.56;100.00
10946;BME280;5525;42.648;23.368;2023-03-20T00:13:14;94973.88;;;5.66;100.00
10946;BME280;5525;42.648;23.368;2023-03-20T00:15:46;94980.28;;;5.70;100.00
10946;BME280;5525;42.648;23.368;2023-03-20T00:18:15;94972.34;;;5.60;100.00
10946;BME280;5525;42.648;23.368;2023-03-20T00:20:43;94983.69;;;5.52;100.00
10946;BME280;5525;42.648;23.368;2023-03-20T00:23:10;94978.16;;;5.44;100.00
10946;BME280;5525;42.648;23.368;2023-03-20T00:25:37;94971.75;;;5.16;100.00
10946;BME280;5525;42.648;23.368;2023-03-20T00:28:29;94966.16;;;5.12;100.00
10946;BME280;5525;42.648;23.368;2023-03-20T00:30:59;94973.50;;;5.02;100.00
10946;BME280;5525;42.648;23.368;2023-03-20T00:33:26;94959.31;;;5.01;100.00
10946;BME280;5525;42.648;23.368;2023-03-20T00:35:52;94968.88;;;5.07;100.00
10946;BME280;5525;42.648;23.368;2023-03-20T00:38:19;94968.59;;;5.38;100.00
10946;BME280;5525;42.648;23.368;2023-03-20T00:40:46;94958.84;;;5.47;100.00
10946;BME280;5525;42.648;23.368;2023-03-20T00:43:13;94957.06;;;5.37;100.00
10946;BME280;5525;42.648;23.368;2023-03-20T00:45:43;94965.31;;;5.17;100.00
10946;BME280;5525;42.648;23.368;2023-03-20T00:48:13;94964.22;;;4.61;100.00
10946;BME280;5525;42.648;23.368;2023-03-20T00:50:41;94959.69;;;4.56;100.00
10946;BME280;5525;42.648;23.368;2023-03-20T00:53:09;94963.22;;;4.52;100.00
10946;BME280;5525;42.648;23.368;2023-03-20T00:55:36;94965.25;;;4.60;100.00
10946;BME280;5525;42.648;23.368;2023-03-20T00:58:05;94961.69;;;4.41;100.00
10946;BME280;5525;42.648;23.368;2023-03-20T01:00:37;94951.28;;;4.34;100.00
10946;BME280;5525;42.648;23.368;2023-03-20T01:03:11;94951.84;;;4.31;100.00
10946;BME280;5525;42.648;23.368;2023-03-20T01:05:39;94951.09;;;4.26;100.00
10946;BME280;5525;42.648;23.368;2023-03-20T01:08:12;94946.03;;;4.24;100.00
10946;BME280;5525;42.648;23.368;2023-03-20T01:10:40;94948.31;;;3.97;100.00
10946;BME280;5525;42.648;23.368;2023-03-20T01:13:16;94944.25;;;4.05;100.00
10946;BME280;5525;42.648;23.368;2023-03-20T01:15:44;94944.44;;;4.18;100.00
10946;BME280;5525;42.648;23.368;2023-03-20T01:18:12;94939.59;;;4.25;100.00
10946;BME280;5525;42.648;23.368;2023-03-20T01:20:41;94939.22;;;4.37;100.00
10946;BME280;5525;42.648;23.368;2023-03-20T01:23:08;94937.22;;;4.24;100.00
10946;BME280;5525;42.648;23.368;2023-03-20T01:25:35;94939.31;;;4.27;100.00
10946;BME280;5525;42.648;23.368;2023-03-20T01:28:03;94937.38;;;4.37;100.00
10946;BME280;5525;42.648;23.368;2023-03-20T01:30:36;94936.25;;;4.43;100.00
10946;BME280;5525;42.648;23.368;2023-03-20T01:33:05;94947.09;;;4.57;100.00
10946;BME280;5525;42.648;23.368;2023-03-20T01:35:37;94943.59;;;4.61;100.00
10946;BME280;5525;42.648;23.368;2023-03-20T01:38:10;94942.72;;;4.71;100.00
10946;BME280;5525;42.648;23.368;2023-03-20T01:40:43;94941.66;;;4.72;100.00
10946;BME280;5525;42.648;23.368;2023-03-20T01:43:16;94941.03;;;4.80;100.00
10946;BME280;5525;42.648;23.368;2023-03-20T01:45:51;94946.72;;;4.73;100.00
10946;BME280;5525;42.648;23.368;2023-03-20T01:48:22;94950.16;;;4.79;100.00
10946;BME280;5525;42.648;23.368;2023-03-20T01:50:50;94950.84;;;4.61;100.00
10946;BME280;5525;42.648;23.368;2023-03-20T01:53:20;94947.88;;;4.62;100.00
10946;BME280;5525;42.648;23.368;2023-03-20T01:55:50;94943.00;;;4.36;100.00
10946;BME280;5525;42.648;23.368;2023-03-20T01:58:22;94956.44;;;4.26;100.00
10946;BME280;5525;42.648;23.368;2023-03-20T02:00:51;94953.28;;;4.14;100.00
10946;BME280;5525;42.648;23.368;2023-03-20T02:03:19;94948.03;;;3.99;100.00
10946;BME280;5525;42.648;23.368;2023-03-20T02:05:46;94945.34;;;4.04;100.00
10946;BME280;5525;42.648;23.368;2023-03-20T02:08:20;94947.16;;;4.13;100.00
10946;BME280;5525;42.648;23.368;2023-03-20T02:10:48;94937.78;;;4.16;100.00
10946;BME280;5525;42.648;23.368;2023-03-20T02:13:16;94936.69;;;4.17;100.00
10946;BME280;5525;42.648;23.368;2023-03-20T02:15:58;94942.59;;;4.14;100.00
10946;BME280;5525;42.648;23.368;2023-03-20T02:18:25;94934.34;;;4.10;100.00
10946;BME280;5525;42.648;23.368;2023-03-20T02:21:28;94940.81;;;4.04;100.00
10946;BME280;5525;42.648;23.368;2023-03-20T02:27:19;94945.16;;;3.90;100.00
10946;BME280;5525;42.648;23.368;2023-03-20T02:30:22;94937.72;;;3.77;100.00
10946;BME280;5525;42.648;23.368;2023-03-20T02:33:23;94940.47;;;3.62;100.00
10946;BME280;5525;42.648;23.368;2023-03-20T02:39:18;94948.78;;;3.56;100.00
10946;BME280;5525;42.648;23.368;2023-03-20T02:41:53;94949.03;;;3.64;100.00
10946;BME280;5525;42.648;23.368;2023-03-20T02:44:27;94946.34;;;3.64;100.00
10946;BME280;5525;42.648;23.368;2023-03-20T02:47:02;94951.09;;;3.77;100.00
10946;BME280;5525;42.648;23.368;2023-03-20T02:49:44;94942.56;;;3.75;100.00
10946;BME280;5525;42.648;23.368;2023-03-20T02:52:18;94943.06;;;3.82;100.00
10946;BME280;5525;42.648;23.368;2023-03-20T02:54:52;94930.63;;;4.06;100.00
10946;BME280;5525;42.648;23.368;2023-03-20T02:57:29;94932.44;;;4.16;100.00
10946;BME280;5525;42.648;23.368;2023-03-20T03:00:08;94936.41;;;4.18;100.00
10946;BME280;5525;42.648;23.368;2023-03-20T03:02:38;94925.44;;;4.20;100.00
10946;BME280;5525;42.648;23.368;2023-03-20T03:05:11;94926.13;;;3.97;100.00
10946;BME280;5525;42.648;23.368;2023-03-20T03:07:42;94923.16;;;4.03;100.00
10946;BME280;5525;42.648;23.368;2023-03-20T03:10:15;94924.91;;;3.79;100.00
10946;BME280;5525;42.648;23.368;2023-03-20T03:12:47;94934.44;;;3.95;100.00
10946;BME280;5525;42.648;23.368;2023-03-20T03:15:18;94931.56;;;3.82;100.00
10946;BME280;5525;42.648;23.368;2023-03-20T03:17:47;94927.59;;;3.79;100.00
10946;BME280;5525;42.648;23.368;2023-03-20T03:20:19;94926.84;;;3.69;100.00
10946;BME280;5525;42.648;23.368;2023-03-20T03:22:48;94928.53;;;3.44;100.00
10946;BME280;5525;42.648;23.368;2023-03-20T03:25:17;94926.66;;;3.45;100.00
10946;BME280;5525;42.648;23.368;2023-03-20T03:27:46;94924.78;;;3.51;100.00
10946;BME280;5525;42.648;23.368;2023-03-20T03:30:19;94932.06;;;3.35;100.00
10946;BME280;5525;42.648;23.368;2023-03-20T03:33:01;94933.09;;;3.39;100.00
10946;BME280;5525;42.648;23.368;2023-03-20T03:35:32;94934.13;;;3.48;100.00
10946;BME280;5525;42.648;23.368;2023-03-20T03:38:02;94934.13;;;3.53;100.00
10946;BME280;5525;42.648;23.368;2023-03-20T03:40:33;94932.53;;;3.52;100.00
10946;BME280;5525;42.648;23.368;2023-03-20T03:43:06;94938.63;;;3.53;100.00
10946;BME280;5525;42.648;23.368;2023-03-20T03:45:43;94942.69;;;3.45;100.00
10946;BME280;5525;42.648;23.368;2023-03-20T03:48:13;94933.78;;;3.65;100.00
10946;BME280;5525;42.648;23.368;2023-03-20T03:50:44;94936.44;;;3.70;100.00
10946;BME280;5525;42.648;23.368;2023-03-20T03:53:18;94932.41;;;3.72;100.00
10946;BME280;5525;42.648;23.368;2023-03-20T03:55:52;94928.22;;;3.61;100.00
10946;BME280;5525;42.648;23.368;2023-03-20T03:58:24;94934.47;;;3.90;100.00
10946;BME280;5525;42.648;23.368;2023-03-20T04:00:54;94928.56;;;3.93;100.00
10946;BME280;5525;42.648;23.368;2023-03-20T04:03:27;94916.81;;;3.94;100.00
10946;BME280;5525;42.648;23.368;2023-03-20T04:05:56;94921.03;;;4.00;100.00
10946;BME280;5525;42.648;23.368;2023-03-20T04:08:24;94930.34;;;4.08;100.00
10946;BME280;5525;42.648;23.368;2023-03-20T04:10:52;94922.88;;;4.05;100.00
10946;BME280;5525;42.648;23.368;2023-03-20T04:13:19;94916.25;;;3.97;100.00
10946;BME280;5525;42.648;23.368;2023-03-20T04:15:45;94915.44;;;3.97;100.00
10946;BME280;5525;42.648;23.368;2023-03-20T04:18:13;94916.06;;;3.84;100.00
10946;BME280;5525;42.648;23.368;2023-03-20T04:20:41;94907.03;;;3.80;100.00
10946;BME280;5525;42.648;23.368;2023-03-20T04:23:08;94910.00;;;3.68;100.00
10946;BME280;5525;42.648;23.368;2023-03-20T04:25:35;94912.91;;;3.77;100.00
10946;BME280;5525;42.648;23.368;2023-03-20T04:28:03;94920.41;;;3.75;100.00
10946;BME280;5525;42.648;23.368;2023-03-20T04:30:30;94918.53;;;3.75;100.00
10946;BME280;5525;42.648;23.368;2023-03-20T04:32:57;94919.69;;;3.54;100.00
10946;BME280;5525;42.648;23.368;2023-03-20T04:35:23;94914.88;;;3.61;100.00
10946;BME280;5525;42.648;23.368;2023-03-20T04:37:50;94914.03;;;3.66;100.00
10946;BME280;5525;42.648;23.368;2023-03-20T04:40:17;94905.47;;;3.69;100.00
10946;BME280;5525;42.648;23.368;2023-03-20T04:42:44;94912.13;;;3.71;100.00
10946;BME280;5525;42.648;23.368;2023-03-20T04:45:12;94911.25;;;3.32;100.00
10946;BME280;5525;42.648;23.368;2023-03-20T04:47:39;94916.31;;;3.33;100.00
10946;BME280;5525;42.648;23.368;2023-03-20T04:50:06;94918.19;;;3.28;100.00
10946;BME280;5525;42.648;23.368;2023-03-20T04:52:33;94930.47;;;3.29;100.00
10946;BME280;5525;42.648;23.368;2023-03-20T04:54:59;94938.13;;;3.51;100.00
10946;BME280;5525;42.648;23.368;2023-03-20T04:57:26;94943.16;;;3.62;100.00
10946;BME280;5525;42.648;23.368;2023-03-20T04:59:53;94945.28;;;3.60;100.00
10946;BME280;5525;42.648;23.368;2023-03-20T05:02:21;94944.72;;;3.63;100.00
10946;BME280;5525;42.648;23.368;2023-03-20T05:04:47;94950.31;;;3.77;100.00
10946;BME280;5525;42.648;23.368;2023-03-20T05:07:14;94952.63;;;3.88;100.00
10946;BME280;5525;42.648;23.368;2023-03-20T05:09:41;94950.97;;;3.97;100.00
10946;BME280;5525;42.648;23.368;2023-03-20T05:12:11;94954.38;;;4.13;100.00
10946;BME280;5525;42.648;23.368;2023-03-20T05:14:38;94953.44;;;4.32;100.00
10946;BME280;5525;42.648;23.368;2023-03-20T05:17:04;94953.66;;;4.41;100.00
10946;BME280;5525;42.648;23.368;2023-03-20T05:19:32;94956.34;;;4.41;100.00
10946;BME280;5525;42.648;23.368;2023-03-20T05:21:59;94951.25;;;4.44;100.00
10946;BME280;5525;42.648;23.368;2023-03-20T05:24:26;94953.69;;;4.69;100.00
10946;BME280;5525;42.648;23.368;2023-03-20T05:26:53;94966.28;;;4.69;100.00
10946;BME280;5525;42.648;23.368;2023-03-20T05:29:20;94960.81;;;4.84;100.00
10946;BME280;5525;42.648;23.368;2023-03-20T05:31:47;94952.63;;;5.28;100.00
10946;BME280;5525;42.648;23.368;2023-03-20T05:34:13;94949.16;;;5.27;100.00
10946;BME280;5525;42.648;23.368;2023-03-20T05:36:41;94967.84;;;5.32;100.00
10946;BME280;5525;42.648;23.368;2023-03-20T05:39:08;94965.75;;;5.53;100.00
10946;BME280;5525;42.648;23.368;2023-03-20T05:41:36;94959.81;;;5.79;100.00
10946;BME280;5525;42.648;23.368;2023-03-20T05:44:02;94953.09;;;5.82;100.00
10946;BME280;5525;42.648;23.368;2023-03-20T05:46:29;94954.63;;;5.88;100.00
10946;BME280;5525;42.648;23.368;2023-03-20T05:48:56;94962.38;;;5.89;100.00
10946;BME280;5525;42.648;23.368;2023-03-20T05:51:22;94964.53;;;6.11;100.00
10946;BME280;5525;42.648;23.368;2023-03-20T05:53:50;94965.06;;;6.31;100.00
10946;BME280;5525;42.648;23.368;2023-03-20T05:56:17;94968.03;;;6.30;100.00
10946;BME280;5525;42.648;23.368;2023-03-20T05:58:44;94974.97;;;6.12;100.00
10946;BME280;5525;42.648;23.368;2023-03-20T06:01:10;94971.44;;;5.70;100.00
10946;BME280;5525;42.648;23.368;2023-03-20T06:03:40;94967.25;;;6.06;100.00
10946;BME280;5525;42.648;23.368;2023-03-20T06:06:07;94967.22;;;6.11;100.00
10946;BME280;5525;42.648;23.368;2023-03-20T06:08:34;94967.00;;;6.44;100.00
10946;BME280;5525;42.648;23.368;2023-03-20T06:11:03;94965.19;;;6.58;100.00
10946;BME280;5525;42.648;23.368;2023-03-20T06:13:30;94960.38;;;7.06;100.00
10946;BME280;5525;42.648;23.368;2023-03-20T06:15:56;94951.44;;;7.11;100.00
10946;BME280;5525;42.648;23.368;2023-03-20T06:18:23;94962.44;;;6.63;100.00
10946;BME280;5525;42.648;23.368;2023-03-20T06:20:51;94968.66;;;6.59;100.00
10946;BME280;5525;42.648;23.368;2023-03-20T06:23:18;94961.94;;;6.93;100.00
10946;BME280;5525;42.648;23.368;2023-03-20T06:25:44;94966.56;;;6.56;100.00
10946;BME280;5525;42.648;23.368;2023-03-20T06:28:13;94978.16;;;6.88;100.00
10946;BME280;5525;42.648;23.368;2023-03-20T06:30:40;94975.34;;;6.93;100.00
10946;BME280;5525;42.648;23.368;2023-03-20T06:33:07;94974.66;;;6.88;100.00
10946;BME280;5525;42.648;23.368;2023-03-20T06:35:34;94973.69;;;7.30;100.00
10946;BME280;5525;42.648;23.368;2023-03-20T06:38:01;94966.97;;;7.73;100.00
10946;BME280;5525;42.648;23.368;2023-03-20T06:40:27;94974.59;;;7.52;100.00
10946;BME280;5525;42.648;23.368;2023-03-20T06:42:54;94965.69;;;7.84;100.00
10946;BME280;5525;42.648;23.368;2023-03-20T06:45:22;94970.75;;;7.85;100.00
10946;BME280;5525;42.648;23.368;2023-03-20T06:47:49;94971.94;;;7.93;100.00
10946;BME280;5525;42.648;23.368;2023-03-20T06:50:16;94967.44;;;8.29;100.00
10946;BME280;5525;42.648;23.368;2023-03-20T06:52:42;94968.41;;;8.46;100.00
10946;BME280;5525;42.648;23.368;2023-03-20T06:55:09;94967.09;;;8.57;100.00
10946;BME280;5525;42.648;23.368;2023-03-20T06:57:37;94963.69;;;8.88;100.00
10946;BME280;5525;42.648;23.368;2023-03-20T07:00:05;94952.09;;;9.62;96.46
10946;BME280;5525;42.648;23.368;2023-03-20T07:02:33;94954.28;;;10.38;90.47
10946;BME280;5525;42.648;23.368;2023-03-20T07:05:00;94947.78;;;10.39;89.28
10946;BME280;5525;42.648;23.368;2023-03-20T07:07:27;94940.28;;;11.30;84.92
10946;BME280;5525;42.648;23.368;2023-03-20T07:09:54;94946.16;;;11.95;79.29
10946;BME280;5525;42.648;23.368;2023-03-20T07:12:21;94947.47;;;12.18;76.64
10946;BME280;5525;42.648;23.368;2023-03-20T07:14:52;94947.75;;;12.75;72.66
10946;BME280;5525;42.648;23.368;2023-03-20T07:17:19;94940.88;;;14.44;69.25
10946;BME280;5525;42.648;23.368;2023-03-20T07:19:48;94943.47;;;16.02;58.13
10946;BME280;5525;42.648;23.368;2023-03-20T07:22:19;94936.41;;;17.33;52.98
10946;BME280;5525;42.648;23.368;2023-03-20T07:24:47;94941.00;;;19.35;47.16
10946;BME280;5525;42.648;23.368;2023-03-20T07:27:13;94931.94;;;20.92;41.67
10946;BME280;5525;42.648;23.368;2023-03-20T07:29:40;94927.88;;;20.21;40.94
10946;BME280;5525;42.648;23.368;2023-03-20T07:32:07;94932.13;;;20.15;39.49
10946;BME280;5525;42.648;23.368;2023-03-20T07:34:34;94940.31;;;18.86;41.28
10946;BME280;5525;42.648;23.368;2023-03-20T07:37:02;94935.03;;;18.48;41.76
10946;BME280;5525;42.648;23.368;2023-03-20T07:39:29;94936.31;;;20.46;39.29
10946;BME280;5525;42.648;23.368;2023-03-20T07:41:56;94935.63;;;21.10;37.40
10946;BME280;5525;42.648;23.368;2023-03-20T07:44:23;94932.09;;;22.02;35.62
10946;BME280;5525;42.648;23.368;2023-03-20T07:46:50;94932.16;;;23.11;33.93
10946;BME280;5525;42.648;23.368;2023-03-20T07:49:16;94936.19;;;21.43;34.69
10946;BME280;5525;42.648;23.368;2023-03-20T07:51:43;94930.97;;;22.21;34.26
10946;BME280;5525;42.648;23.368;2023-03-20T07:54:12;94939.69;;;22.61;34.17
10946;BME280;5525;42.648;23.368;2023-03-20T07:56:39;94943.00;;;21.70;33.84
10946;BME280;5525;42.648;23.368;2023-03-20T07:59:06;94933.56;;;23.72;31.93
10946;BME280;5525;42.648;23.368;2023-03-20T08:01:32;94943.75;;;25.79;29.20
10946;BME280;5525;42.648;23.368;2023-03-20T08:03:59;94947.72;;;26.92;27.24
10946;BME280;5525;42.648;23.368;2023-03-20T08:06:26;94959.94;;;26.94;26.14
10946;BME280;5525;42.648;23.368;2023-03-20T08:08:52;94949.44;;;23.40;29.88
10946;BME280;5525;42.648;23.368;2023-03-20T08:11:21;94943.78;;;23.78;30.22
10946;BME280;5525;42.648;23.368;2023-03-20T08:13:47;94939.59;;;26.81;27.34
10946;BME280;5525;42.648;23.368;2023-03-20T08:16:14;94935.69;;;25.21;28.12
10946;BME280;5525;42.648;23.368;2023-03-20T08:18:41;94945.84;;;29.00;24.78
10946;BME280;5525;42.648;23.368;2023-03-20T08:21:08;94948.38;;;29.27;24.16
10946;BME280;5525;42.648;23.368;2023-03-20T08:23:35;94951.66;;;32.17;21.33
10946;BME280;5525;42.648;23.368;2023-03-20T08:26:01;94955.13;;;28.26;23.63
10946;BME280;5525;42.648;23.368;2023-03-20T08:28:29;94946.75;;;31.32;21.53
10946;BME280;5525;42.648;23.368;2023-03-20T08:30:56;94955.50;;;29.28;22.47
10946;BME280;5525;42.648;23.368;2023-03-20T08:33:23;94960.06;;;28.54;23.03
10946;BME280;5525;42.648;23.368;2023-03-20T08:35:56;94954.22;;;26.55;25.30
10946;BME280;5525;42.648;23.368;2023-03-20T08:38:23;94949.19;;;27.46;24.64
10946;BME280;5525;42.648;23.368;2023-03-20T08:40:50;94956.66;;;30.04;22.25
10946;BME280;5525;42.648;23.368;2023-03-20T08:43:16;94954.53;;;32.05;20.46
10946;BME280;5525;42.648;23.368;2023-03-20T08:45:45;94958.38;;;33.69;19.22
10946;BME280;5525;42.648;23.368;2023-03-20T08:48:11;94953.09;;;34.26;18.52
10946;BME280;5525;42.648;23.368;2023-03-20T08:50:38;94951.28;;;29.07;22.69
10946;BME280;5525;42.648;23.368;2023-03-20T08:53:05;94948.06;;;32.60;19.62
10946;BME280;5525;42.648;23.368;2023-03-20T08:55:32;94948.44;;;33.11;18.99
10946;BME280;5525;42.648;23.368;2023-03-20T08:57:59;94946.25;;;33.72;18.55
10946;BME280;5525;42.648;23.368;2023-03-20T09:00:26;94947.03;;;34.27;18.22
10946;BME280;5525;42.648;23.368;2023-03-20T09:02:54;94947.59;;;34.67;17.43
10946;BME280;5525;42.648;23.368;2023-03-20T09:05:21;94949.16;;;35.66;16.87
10946;BME280;5525;42.648;23.368;2023-03-20T09:07:47;94941.66;;;36.25;16.41
10946;BME280;5525;42.648;23.368;2023-03-20T09:10:16;94943.19;;;33.22;17.99
10946;BME280;5525;42.648;23.368;2023-03-20T09:12:42;94941.88;;;33.05;18.20
10946;BME280;5525;42.648;23.368;2023-03-20T09:15:10;94929.97;;;35.08;17.15
10946;BME280;5525;42.648;23.368;2023-03-20T09:17:37;94936.66;;;36.72;16.21
10946;BME280;5525;42.648;23.368;2023-03-20T09:20:06;94936.28;;;36.50;16.20
10946;BME280;5525;42.648;23.368;2023-03-20T09:22:33;94936.88;;;36.69;16.11
10946;BME280;5525;42.648;23.368;2023-03-20T09:24:59;94933.78;;;37.85;15.26
10946;BME280;5525;42.648;23.368;2023-03-20T09:27:26;94932.88;;;36.90;15.41
10946;BME280;5525;42.648;23.368;2023-03-20T09:29:53;94930.34;;;38.67;14.67
10946;BME280;5525;42.648;23.368;2023-03-20T09:32:19;94923.41;;;37.07;15.08
10946;BME280;5525;42.648;23.368;2023-03-20T09:34:46;94923.28;;;36.96;15.54
10946;BME280;5525;42.648;23.368;2023-03-20T09:37:14;94922.91;;;37.09;15.20
10946;BME280;5525;42.648;23.368;2023-03-20T09:39:41;94908.81;;;36.74;15.29
10946;BME280;5525;42.648;23.368;2023-03-20T09:42:20;94901.84;;;34.34;16.74
10946;BME280;5525;42.648;23.368;2023-03-20T09:44:55;94901.66;;;33.11;17.50
10946;BME280;5525;42.648;23.368;2023-03-20T09:47:30;94899.53;;;37.03;15.51
10946;BME280;5525;42.648;23.368;2023-03-20T09:50:21;94890.06;;;35.28;15.82
10946;BME280;5525;42.648;23.368;2023-03-20T09:52:56;94877.56;;;33.23;17.48
10946;BME280;5525;42.648;23.368;2023-03-20T09:55:31;94870.28;;;35.55;15.98
10946;BME280;5525;42.648;23.368;2023-03-20T09:58:04;94863.13;;;35.68;15.80
10946;BME280;5525;42.648;23.368;2023-03-20T10:00:33;94860.84;;;37.98;14.81
10946;BME280;5525;42.648;23.368;2023-03-20T10:03:02;94863.41;;;36.67;14.97
10946;BME280;5525;42.648;23.368;2023-03-20T10:05:33;94850.25;;;35.77;15.66
10946;BME280;5525;42.648;23.368;2023-03-20T10:08:05;94850.13;;;37.02;15.03
10946;BME280;5525;42.648;23.368;2023-03-20T10:10:41;94826.34;;;36.25;15.42
10946;BME280;5525;42.648;23.368;2023-03-20T10:13:34;94836.06;;;35.56;15.75
10946;BME280;5525;42.648;23.368;2023-03-20T10:16:09;94830.88;;;32.13;18.24
10946;BME280;5525;42.648;23.368;2023-03-20T10:18:42;94832.41;;;32.14;17.76
10946;BME280;5525;42.648;23.368;2023-03-20T10:21:19;94822.31;;;34.13;16.69
10946;BME280;5525;42.648;23.368;2023-03-20T10:23:56;94834.78;;;36.54;15.46
10946;BME280;5525;42.648;23.368;2023-03-20T10:26:26;94819.22;;;34.86;15.87
10946;BME280;5525;42.648;23.368;2023-03-20T10:28:56;94816.59;;;34.50;16.21
10946;BME280;5525;42.648;23.368;2023-03-20T10:31:32;94812.66;;;34.56;16.11
10946;BME280;5525;42.648;23.368;2023-03-20T10:34:16;94816.47;;;35.86;15.67
10946;BME280;5525;42.648;23.368;2023-03-20T10:36:55;94810.22;;;35.29;15.77
10946;BME280;5525;42.648;23.368;2023-03-20T10:39:37;94807.84;;;35.36;15.66
10946;BME280;5525;42.648;23.368;2023-03-20T10:42:12;94804.34;;;33.15;17.53
10946;BME280;5525;42.648;23.368;2023-03-20T10:44:43;94801.41;;;35.59;15.37
10946;BME280;5525;42.648;23.368;2023-03-20T10:47:17;94796.91;;;36.06;15.47
10946;BME280;5525;42.648;23.368;2023-03-20T10:49:48;94796.56;;;35.74;15.54
10946;BME280;5525;42.648;23.368;2023-03-20T10:52:20;94795.56;;;36.65;15.04
10946;BME280;5525;42.648;23.368;2023-03-20T10:54:52;94783.00;;;34.32;16.44
10946;BME280;5525;42.648;23.368;2023-03-20T10:57:23;94776.25;;;34.05;16.49
10946;BME280;5525;42.648;23.368;2023-03-20T10:59:51;94780.28;;;36.22;15.25
10946;BME280;5525;42.648;23.368;2023-03-20T11:02:20;94788.16;;;37.62;14.57
10946;BME280;5525;42.648;23.368;2023-03-20T11:04:47;94777.31;;;37.55;14.32
10946;BME280;5525;42.648;23.368;2023-03-20T11:07:21;94776.88;;;37.37;14.41
10946;BME280;5525;42.648;23.368;2023-03-20T11:10:06;94776.31;;;36.43;14.67
10946;BME280;5525;42.648;23.368;2023-03-20T11:12:36;94766.13;;;37.61;14.48
10946;BME280;5525;42.648;23.368;2023-03-20T11:15:15;94765.97;;;37.70;14.10
10946;BME280;5525;42.648;23.368;2023-03-20T11:17:53;94754.34;;;37.16;14.12
10946;BME280;5525;42.648;23.368;2023-03-20T11:20:20;94753.06;;;37.38;13.94
10946;BME280;5525;42.648;23.368;2023-03-20T11:22:47;94740.56;;;36.64;14.34
10946;BME280;5525;42.648;23.368;2023-03-20T11:25:27;94747.78;;;37.05;14.00
10946;BME280;5525;42.648;23.368;2023-03-20T11:27:54;94738.53;;;36.01;14.97
10946;BME280;5525;42.648;23.368;2023-03-20T11:30:21;94736.72;;;36.81;14.19
10946;BME280;5525;42.648;23.368;2023-03-20T11:32:49;94733.13;;;37.41;14.04
10946;BME280;5525;42.648;23.368;2023-03-20T11:35:26;94726.50;;;38.21;13.53
10946;BME280;5525;42.648;23.368;2023-03-20T11:38:08;94718.84;;;37.70;13.85
10946;BME280;5525;42.648;23.368;2023-03-20T11:40:38;94709.84;;;35.97;14.82
10946;BME280;5525;42.648;23.368;2023-03-20T11:43:09;94701.34;;;33.37;16.38
10946;BME280;5525;42.648;23.368;2023-03-20T11:45:38;94698.28;;;32.72;16.84
10946;BME280;5525;42.648;23.368;2023-03-20T11:48:09;94697.31;;;31.38;17.88
10946;BME280;5525;42.648;23.368;2023-03-20T11:50:42;94678.00;;;32.32;17.75
10946;BME280;5525;42.648;23.368;2023-03-20T11:53:19;94676.59;;;33.54;16.04
10946;BME280;5525;42.648;23.368;2023-03-20T11:56:00;94685.38;;;33.20;16.46
10946;BME280;5525;42.648;23.368;2023-03-20T11:58:28;94677.44;;;32.64;16.49
10946;BME280;5525;42.648;23.368;2023-03-20T12:00:55;94672.63;;;31.89;16.76
10946;BME280;5525;42.648;23.368;2023-03-20T12:03:50;94673.88;;;32.54;16.14
10946;BME280;5525;42.648;23.368;2023-03-20T12:06:21;94665.97;;;33.07;16.07
10946;BME280;5525;42.648;23.368;2023-03-20T12:08:52;94657.41;;;32.93;16.05
10946;BME280;5525;42.648;23.368;2023-03-20T12:11:44;94655.06;;;32.55;15.86
10946;BME280;5525;42.648;23.368;2023-03-20T12:14:20;94657.34;;;31.81;16.86
10946;BME280;5525;42.648;23.368;2023-03-20T12:16:51;94657.50;;;30.60;17.50
10946;BME280;5525;42.648;23.368;2023-03-20T12:19:23;94646.75;;;30.71;17.63
10946;BME280;5525;42.648;23.368;2023-03-20T12:21:57;94643.38;;;30.21;18.17
10946;BME280;5525;42.648;23.368;2023-03-20T12:24:30;94637.97;;;30.94;17.85
10946;BME280;5525;42.648;23.368;2023-03-20T12:27:12;94637.56;;;31.05;17.46
10946;BME280;5525;42.648;23.368;2023-03-20T12:29:45;94637.28;;;30.69;18.08
10946;BME280;5525;42.648;23.368;2023-03-20T12:32:16;94628.91;;;30.81;17.41
10946;BME280;5525;42.648;23.368;2023-03-20T12:34:47;94629.19;;;29.69;18.28
10946;BME280;5525;42.648;23.368;2023-03-20T12:37:15;94620.88;;;30.15;17.70
10946;BME280;5525;42.648;23.368;2023-03-20T12:39:47;94621.47;;;29.22;18.31
10946;BME280;5525;42.648;23.368;2023-03-20T12:42:26;94616.03;;;29.19;18.12
10946;BME280;5525;42.648;23.368;2023-03-20T12:45:00;94617.81;;;28.72;18.71
10946;BME280;5525;42.648;23.368;2023-03-20T12:47:52;94612.22;;;28.43;19.03
10946;BME280;5525;42.648;23.368;2023-03-20T12:50:25;94609.75;;;27.72;19.19
10946;BME280;5525;42.648;23.368;2023-03-20T12:53:07;94604.53;;;27.26;19.53
10946;BME280;5525;42.648;23.368;2023-03-20T12:55:48;94599.50;;;26.66;20.10
10946;BME280;5525;42.648;23.368;2023-03-20T12:58:27;94597.50;;;26.27;20.69
10946;BME280;5525;42.648;23.368;2023-03-20T13:01:01;94591.09;;;25.87;20.68
10946;BME280;5525;42.648;23.368;2023-03-20T13:06:36;94578.50;;;24.23;21.98
10946;BME280;5525;42.648;23.368;2023-03-20T13:09:29;94583.50;;;24.35;21.88
10946;BME280;5525;42.648;23.368;2023-03-20T13:12:04;94576.63;;;24.17;21.91
10946;BME280;5525;42.648;23.368;2023-03-20T13:14:40;94574.47;;;23.94;21.52
10946;BME280;5525;42.648;23.368;2023-03-20T13:17:15;94570.03;;;23.67;21.04
10946;BME280;5525;42.648;23.368;2023-03-20T13:19:52;94566.53;;;23.63;21.29
10946;BME280;5525;42.648;23.368;2023-03-20T13:22:31;94557.13;;;23.60;21.17
10946;BME280;5525;42.648;23.368;2023-03-20T13:25:03;94553.66;;;23.01;21.59
10946;BME280;5525;42.648;23.368;2023-03-20T13:27:36;94549.28;;;23.11;21.56